CheckWX is a tool to help pilots better visualize weather data.  It is not intended as a substitute for an official pre-flight weather briefing.

07:09:24 UTC

MRPV TAF
Tobias Bolanos International Airport
San Jose, Costa Rica
MRPV 160500Z 1606/1706 08012KT 9999 SCT030 TX29/1619Z TN19/1611Z

Jun-16@
06:00 UTC

Jun-16 @ 06:00 UTC

Jun-17@
06:00 UTC

Jun-17 @ 06:00 UTC

MRPV 160500Z 1606/1706 08012KT 9999 SCT030 TX29/1619Z TN19/1611Z
Wind
  • 080° at 12 KTS
Cloud Levels
  • Scattered at 3,000' AGL